Terminal Aerodrome Forecast
Issued by NWS

Home | Current Version | Previous Version | Graphics & Text | Print | Product List | Glossary On
Versions: 1 2 3 4 5 6 7 8 9 10 11 12 13
000
FTUS43 KMPX 311135
TAFRNH
TAF
KRNH 311135Z 3112/0112 08006KT P6SM SKC
     FM311700 10008KT P6SM BKN250
     FM312300 11006KT P6SM OVC150
     FM010600 10003KT P6SM SCT150=

USA.gov is the U.S. government's official web portal to all federal, state and local government web resources and services.